Time;durP1;ratioP1;P1;durP2;ratioP2;P2;SDS_P1;SDS_P2;PMS_P1;PMS_P2;Temp;Humidity;BMP_temperature;BMP_pressure;BME280_temperature;BME280_humidity;BME280_pressure;Samples;Min_cycle;Max_cycle;Signal;HPM_P1;HPM_P2
2023/05/28 00:01:56;;;;;;;12.35;5.25;;;;;;;;;;7370400;19;19994;-78
2023/05/28 00:04:21;;;;;;;14.55;5.63;;;;;;;;;;7362660;19;20007;-78
2023/05/28 00:06:48;;;;;;;11.50;5.30;;;;;;;;;;7348837;19;19994;-78
2023/05/28 00:09:14;;;;;;;12.93;5.32;;;;;;;;;;7361339;19;20030;-78
2023/05/28 00:11:39;;;;;;;13.82;5.95;;;;;;;;;;7349979;19;19994;-78
2023/05/28 00:14:04;;;;;;;14.98;5.00;;;;;;;;;;7367148;19;20010;-77
2023/05/28 00:16:29;;;;;;;12.90;5.10;;;;;;;;;;7363717;19;20036;-77
2023/05/28 00:18:54;;;;;;;14.83;5.97;;;;;;;;;;7366589;19;20782;-77
2023/05/28 00:21:20;;;;;;;11.83;5.57;;;;;;;;;;7359521;19;20255;-77
2023/05/28 00:23:45;;;;;;;13.83;5.77;;;;;;;;;;7361641;19;20384;-76
2023/05/28 00:26:10;;;;;;;13.23;5.53;;;;;;;;;;7360761;19;20256;-77
2023/05/28 00:28:35;;;;;;;14.30;6.47;;;;;;;;;;7366202;19;20018;-78
2023/05/28 00:31:02;;;;;;;14.93;6.30;;;;;;;;;;7367470;19;20244;-77
2023/05/28 00:33:27;;;;;;;14.80;6.35;;;;;;;;;;7359842;19;20023;-78
2023/05/28 00:35:55;;;;;;;11.87;5.90;;;;;;;;;;7359854;19;19999;-78
2023/05/28 00:38:20;;;;;;;14.65;5.85;;;;;;;;;;7361606;19;20327;-78
2023/05/28 00:40:46;;;;;;;14.30;5.30;;;;;;;;;;7358718;19;20003;-78
2023/05/28 00:43:11;;;;;;;12.87;6.00;;;;;;;;;;7359911;19;20242;-77
2023/05/28 00:45:36;;;;;;;13.68;5.93;;;;;;;;;;7359978;19;20247;-78
2023/05/28 00:48:01;;;;;;;14.80;6.70;;;;;;;;;;7363927;19;20576;-77
2023/05/28 00:50:28;;;;;;;13.30;6.05;;;;;;;;;;7345112;19;20240;-77
2023/05/28 00:52:53;;;;;;;13.40;5.75;;;;;;;;;;7364212;19;20010;-78
2023/05/28 00:55:18;;;;;;;14.90;6.20;;;;;;;;;;7352144;19;20459;-77
2023/05/28 00:57:46;;;;;;;16.02;5.95;;;;;;;;;;7360137;19;20438;-78
2023/05/28 01:00:11;;;;;;;15.10;7.03;;;;;;;;;;7362659;19;20098;-78
2023/05/28 01:02:37;;;;;;;12.20;5.82;;;;;;;;;;7365235;19;20110;-78
2023/05/28 01:05:02;;;;;;;13.82;6.45;;;;;;;;;;7356018;19;19999;-78
2023/05/28 01:07:28;;;;;;;13.23;5.93;;;;;;;;;;7360491;19;20512;-78
2023/05/28 01:09:54;;;;;;;12.77;6.57;;;;;;;;;;7362422;19;20134;-77
2023/05/28 01:12:19;;;;;;;13.23;5.45;;;;;;;;;;7361899;19;20006;-77
2023/05/28 01:14:45;;;;;;;11.57;6.13;;;;;;;;;;7366230;19;19998;-78
2023/05/28 01:17:11;;;;;;;12.52;6.75;;;;;;;;;;7358554;19;20070;-77
2023/05/28 01:19:36;;;;;;;13.32;5.93;;;;;;;;;;7350818;19;20031;-77
2023/05/28 01:22:03;;;;;;;13.00;6.57;;;;;;;;;;7356903;19;20420;-77
2023/05/28 01:24:29;;;;;;;13.15;6.30;;;;;;;;;;7362209;19;20748;-78
2023/05/28 01:26:55;;;;;;;14.05;5.80;;;;;;;;;;7357390;19;20330;-78
2023/05/28 01:29:20;;;;;;;16.33;6.28;;;;;;;;;;7358687;19;20542;-77
2023/05/28 01:31:45;;;;;;;13.20;6.20;;;;;;;;;;7359987;19;20042;-77
2023/05/28 01:34:11;;;;;;;14.93;6.25;;;;;;;;;;7362198;19;20219;-77
2023/05/28 01:36:42;;;;;;;16.42;6.28;;;;;;;;;;7357123;19;20017;-77
2023/05/28 01:39:08;;;;;;;14.70;6.28;;;;;;;;;;7363015;19;20014;-77
2023/05/28 01:41:35;;;;;;;16.17;6.45;;;;;;;;;;7357638;19;20174;-77
2023/05/28 01:44:00;;;;;;;14.23;6.35;;;;;;;;;;7344109;19;20184;-77
2023/05/28 01:46:26;;;;;;;12.90;6.20;;;;;;;;;;7359362;19;20103;-77
2023/05/28 01:48:51;;;;;;;18.58;6.80;;;;;;;;;;7362661;19;19999;-77
2023/05/28 01:51:22;;;;;;;13.77;5.63;;;;;;;;;;7308205;19;20007;-78
2023/05/28 01:53:47;;;;;;;14.32;5.85;;;;;;;;;;7296348;19;20075;-77
2023/05/28 01:56:13;;;;;;;15.75;6.45;;;;;;;;;;7288853;19;20084;-78
2023/05/28 01:58:38;;;;;;;14.95;6.43;;;;;;;;;;7296838;19;20090;-78
2023/05/28 02:01:11;;;;;;;14.40;6.47;;;;;;;;;;7285691;19;20577;-77
2023/05/28 02:03:37;;;;;;;12.88;6.20;;;;;;;;;;7289363;19;20239;-78
2023/05/28 02:06:02;;;;;;;15.02;6.68;;;;;;;;;;7296112;19;20003;-76
2023/05/28 02:08:27;;;;;;;12.73;6.45;;;;;;;;;;7294766;19;20141;-78
2023/05/28 02:10:53;;;;;;;15.70;6.80;;;;;;;;;;7290566;19;20003;-77
2023/05/28 02:13:18;;;;;;;14.70;6.70;;;;;;;;;;7298130;19;20350;-77
2023/05/28 02:15:43;;;;;;;11.90;6.00;;;;;;;;;;7295521;19;20768;-77
2023/05/28 02:18:10;;;;;;;13.93;6.97;;;;;;;;;;7289263;19;20439;-77
2023/05/28 02:20:35;;;;;;;12.88;6.45;;;;;;;;;;7295270;19;20261;-78
2023/05/28 02:23:00;;;;;;;14.32;6.05;;;;;;;;;;7298125;19;20081;-78
2023/05/28 02:25:25;;;;;;;16.73;7.27;;;;;;;;;;7294701;19;20007;-78
2023/05/28 02:27:51;;;;;;;14.83;6.57;;;;;;;;;;7298090;19;20438;-77
2023/05/28 02:30:16;;;;;;;14.73;6.47;;;;;;;;;;7286088;19;20954;-79
2023/05/28 02:32:41;;;;;;;20.05;7.47;;;;;;;;;;7280049;19;20499;-77
2023/05/28 02:35:08;;;;;;;15.48;6.28;;;;;;;;;;7285085;19;20328;-78
2023/05/28 02:37:33;;;;;;;14.18;6.15;;;;;;;;;;7283263;19;20006;-78
2023/05/28 02:39:59;;;;;;;15.85;6.80;;;;;;;;;;7284084;19;20399;-77
2023/05/28 02:42:24;;;;;;;11.55;6.20;;;;;;;;;;7291457;19;20024;-77
2023/05/28 02:44:50;;;;;;;15.05;7.00;;;;;;;;;;7296128;19;20453;-77
2023/05/28 02:47:15;;;;;;;14.02;6.45;;;;;;;;;;7290047;19;20395;-77
2023/05/28 02:49:40;;;;;;;12.40;6.40;;;;;;;;;;7291857;19;20066;-77
2023/05/28 02:52:06;;;;;;;15.57;6.70;;;;;;;;;;7366601;19;20111;-77
2023/05/28 02:54:31;;;;;;;15.50;6.40;;;;;;;;;;7361915;19;20582;-77
2023/05/28 02:56:56;;;;;;;20.90;7.13;;;;;;;;;;7361096;19;20018;-77
2023/05/28 02:59:21;;;;;;;12.07;6.70;;;;;;;;;;7361139;19;20010;-78
2023/05/28 03:01:46;;;;;;;12.20;7.13;;;;;;;;;;7355756;19;19994;-77
2023/05/28 03:04:11;;;;;;;15.33;6.23;;;;;;;;;;7361730;19;20298;-77
2023/05/28 03:06:37;;;;;;;15.20;6.57;;;;;;;;;;7355584;19;20925;-77
2023/05/28 03:09:02;;;;;;;16.08;6.85;;;;;;;;;;7366811;19;20215;-77
2023/05/28 03:11:27;;;;;;;17.85;7.13;;;;;;;;;;7364031;19;20017;-78
2023/05/28 03:13:52;;;;;;;15.30;7.20;;;;;;;;;;7362660;19;19991;-79
2023/05/28 03:16:17;;;;;;;17.50;7.97;;;;;;;;;;7365299;19;20014;-78
2023/05/28 03:18:43;;;;;;;16.60;7.90;;;;;;;;;;7341096;19;20716;-78
2023/05/28 03:21:09;;;;;;;16.75;7.90;;;;;;;;;;7347908;19;20399;-79
2023/05/28 03:23:34;;;;;;;15.02;6.88;;;;;;;;;;7358320;19;20002;-78
2023/05/28 03:25:59;;;;;;;15.63;7.65;;;;;;;;;;7364680;19;20029;-77
2023/05/28 03:28:24;;;;;;;20.98;8.05;;;;;;;;;;7362954;19;20119;-77
2023/05/28 03:30:50;;;;;;;13.75;7.20;;;;;;;;;;7365418;19;20034;-77
2023/05/28 03:33:15;;;;;;;14.95;6.70;;;;;;;;;;7362699;19;20015;-77
2023/05/28 03:35:40;;;;;;;15.23;7.30;;;;;;;;;;7356421;19;20014;-77
2023/05/28 03:38:05;;;;;;;17.33;8.25;;;;;;;;;;7364189;19;20788;-77
2023/05/28 03:40:31;;;;;;;15.90;7.43;;;;;;;;;;7361546;19;20251;-77
2023/05/28 03:42:56;;;;;;;16.27;7.53;;;;;;;;;;7362469;19;20948;-77
2023/05/28 03:45:21;;;;;;;13.97;6.63;;;;;;;;;;7359966;19;20326;-78
2023/05/28 03:47:46;;;;;;;15.90;7.23;;;;;;;;;;7357836;19;20298;-77
2023/05/28 03:50:12;;;;;;;14.77;7.27;;;;;;;;;;7358541;19;20251;-78
2023/05/28 03:52:37;;;;;;;15.70;7.60;;;;;;;;;;7360683;19;20271;-77
2023/05/28 03:55:02;;;;;;;18.92;7.57;;;;;;;;;;7364768;19;20331;-78
2023/05/28 03:57:28;;;;;;;18.23;7.32;;;;;;;;;;7358747;19;20444;-77
2023/05/28 03:59:55;;;;;;;15.18;7.05;;;;;;;;;;7364155;19;20390;-77
2023/05/28 04:02:20;;;;;;;17.08;8.10;;;;;;;;;;7361893;19;19999;-77
2023/05/28 04:04:47;;;;;;;15.18;7.90;;;;;;;;;;7355733;19;20823;-78
2023/05/28 04:07:12;;;;;;;15.27;7.50;;;;;;;;;;7363341;19;20006;-77
2023/05/28 04:09:37;;;;;;;15.33;7.17;;;;;;;;;;7363047;19;19994;-77
2023/05/28 04:12:02;;;;;;;14.43;6.77;;;;;;;;;;7361715;19;20549;-77
2023/05/28 04:14:27;;;;;;;15.50;7.30;;;;;;;;;;7361696;19;20235;-78
2023/05/28 04:16:53;;;;;;;13.98;7.57;;;;;;;;;;7363701;19;20419;-78
2023/05/28 04:19:19;;;;;;;17.02;6.72;;;;;;;;;;7365183;19;20001;-77
2023/05/28 04:21:44;;;;;;;14.00;7.32;;;;;;;;;;7352741;19;20002;-77
2023/05/28 04:24:10;;;;;;;12.68;6.22;;;;;;;;;;7366793;19;20081;-78
2023/05/28 04:26:35;;;;;;;15.83;6.87;;;;;;;;;;7351524;19;20470;-77
2023/05/28 04:29:00;;;;;;;15.67;6.50;;;;;;;;;;7356007;19;20228;-78
2023/05/28 04:31:27;;;;;;;13.60;6.30;;;;;;;;;;7363111;19;20547;-77
2023/05/28 04:33:53;;;;;;;13.35;6.47;;;;;;;;;;7365224;19;20380;-78
2023/05/28 04:36:19;;;;;;;12.70;5.70;;;;;;;;;;7357882;19;20063;-77
2023/05/28 04:38:45;;;;;;;17.98;7.05;;;;;;;;;;7361640;19;20317;-78
2023/05/28 04:41:14;;;;;;;14.32;6.63;;;;;;;;;;7349643;19;20606;-79
2023/05/28 04:43:39;;;;;;;14.63;6.72;;;;;;;;;;7365386;19;20001;-78
2023/05/28 04:46:04;;;;;;;13.02;5.97;;;;;;;;;;7365504;19;20014;-78
2023/05/28 04:48:35;;;;;;;17.00;6.60;;;;;;;;;;7364003;19;20321;-77
2023/05/28 04:51:00;;;;;;;12.88;5.72;;;;;;;;;;7364401;19;19999;-78
2023/05/28 04:53:25;;;;;;;10.40;5.82;;;;;;;;;;7361208;19;20424;-78
2023/05/28 04:55:50;;;;;;;12.20;6.10;;;;;;;;;;7359012;19;20986;-77
2023/05/28 04:58:16;;;;;;;12.80;6.63;;;;;;;;;;7367869;19;20247;-79
2023/05/28 05:00:41;;;;;;;13.45;6.38;;;;;;;;;;7367475;19;20276;-79
2023/05/28 05:03:06;;;;;;;14.18;6.63;;;;;;;;;;7368930;19;20034;-80
2023/05/28 05:05:31;;;;;;;13.38;6.13;;;;;;;;;;7361035;19;19999;-79
2023/05/28 05:07:56;;;;;;;12.02;5.80;;;;;;;;;;7368781;19;20029;-78
2023/05/28 05:10:22;;;;;;;12.53;6.00;;;;;;;;;;7362313;19;20002;-81
2023/05/28 05:12:47;;;;;;;12.52;5.88;;;;;;;;;;7362401;19;20364;-79
2023/05/28 05:15:13;;;;;;;13.95;5.53;;;;;;;;;;7369428;19;20116;-80
2023/05/28 05:17:38;;;;;;;12.10;5.82;;;;;;;;;;7368475;19;20019;-79
2023/05/28 05:20:04;;;;;;;13.35;5.50;;;;;;;;;;7357438;19;20005;-80
2023/05/28 05:22:30;;;;;;;12.20;5.63;;;;;;;;;;7363958;19;20009;-79
2023/05/28 05:24:55;;;;;;;11.00;5.63;;;;;;;;;;7371116;19;20058;-78
2023/05/28 05:27:20;;;;;;;13.27;5.73;;;;;;;;;;7370953;19;20006;-81
2023/05/28 05:29:46;;;;;;;12.17;5.00;;;;;;;;;;7367273;19;19999;-80
2023/05/28 05:32:11;;;;;;;11.80;5.70;;;;;;;;;;7368935;19;20001;-79
2023/05/28 05:34:36;;;;;;;9.98;4.82;;;;;;;;;;7365113;19;20369;-79
2023/05/28 05:37:02;;;;;;;10.23;5.00;;;;;;;;;;7356860;19;20460;-78
2023/05/28 05:39:27;;;;;;;10.60;4.82;;;;;;;;;;7372633;19;19995;-79
2023/05/28 05:41:53;;;;;;;11.85;4.68;;;;;;;;;;7373094;19;20502;-78
2023/05/28 05:44:18;;;;;;;10.45;4.93;;;;;;;;;;7372459;19;20019;-78
2023/05/28 05:46:43;;;;;;;11.97;4.93;;;;;;;;;;7371304;19;20002;-79
2023/05/28 05:49:09;;;;;;;12.67;4.90;;;;;;;;;;7367233;19;20660;-79
2023/05/28 05:51:34;;;;;;;10.48;4.57;;;;;;;;;;7370626;19;20810;-79
2023/05/28 05:53:59;;;;;;;11.47;4.90;;;;;;;;;;7377073;19;20327;-82
2023/05/28 05:56:25;;;;;;;8.77;4.63;;;;;;;;;;7370812;19;20309;-79
2023/05/28 05:58:51;;;;;;;10.35;4.95;;;;;;;;;;7375503;19;20751;-79
2023/05/28 06:01:16;;;;;;;11.20;4.88;;;;;;;;;;7377444;19;20017;-80
2023/05/28 06:03:41;;;;;;;9.15;4.47;;;;;;;;;;7373767;19;20625;-80
2023/05/28 06:06:06;;;;;;;13.37;5.17;;;;;;;;;;7368003;19;19991;-79
2023/05/28 06:08:32;;;;;;;11.87;4.97;;;;;;;;;;7373538;19;19999;-81
2023/05/28 06:10:57;;;;;;;13.73;5.55;;;;;;;;;;7377249;19;20450;-77
2023/05/28 06:13:23;;;;;;;14.38;5.03;;;;;;;;;;7377388;19;20030;-77
2023/05/28 06:15:48;;;;;;;13.55;5.63;;;;;;;;;;7371951;19;20316;-80
2023/05/28 06:18:13;;;;;;;15.10;5.57;;;;;;;;;;7375692;19;20034;-78
2023/05/28 06:20:39;;;;;;;12.57;4.57;;;;;;;;;;7371585;19;20237;-81
2023/05/28 06:23:04;;;;;;;14.20;5.80;;;;;;;;;;7375048;19;20006;-79
2023/05/28 06:25:29;;;;;;;13.77;5.22;;;;;;;;;;7373780;19;20336;-77
2023/05/28 06:27:55;;;;;;;12.63;5.60;;;;;;;;;;7371592;19;19999;-77
2023/05/28 06:30:20;;;;;;;12.88;4.90;;;;;;;;;;7375427;19;20031;-79
2023/05/28 06:32:46;;;;;;;15.77;5.20;;;;;;;;;;7374067;19;20002;-79
2023/05/28 06:35:11;;;;;;;14.13;4.80;;;;;;;;;;7370945;19;20238;-79
2023/05/28 06:37:36;;;;;;;14.63;5.32;;;;;;;;;;7369971;19;20011;-81
2023/05/28 06:40:05;;;;;;;12.93;5.18;;;;;;;;;;7372395;19;19995;-79
2023/05/28 06:42:31;;;;;;;11.10;4.63;;;;;;;;;;7372414;19;20005;-81
2023/05/28 06:44:56;;;;;;;12.73;5.20;;;;;;;;;;7373122;19;20483;-81
2023/05/28 06:47:21;;;;;;;10.13;4.35;;;;;;;;;;7368388;19;20002;-79
2023/05/28 06:49:46;;;;;;;13.27;4.47;;;;;;;;;;7365951;19;19998;-81
2023/05/28 06:52:11;;;;;;;11.70;5.03;;;;;;;;;;7366736;19;19991;-79
2023/05/28 06:54:36;;;;;;;10.87;4.73;;;;;;;;;;7367075;19;20018;-81
2023/05/28 06:57:02;;;;;;;13.50;5.32;;;;;;;;;;7367151;19;19994;-80
2023/05/28 06:59:27;;;;;;;14.63;5.57;;;;;;;;;;7374365;19;20003;-79
2023/05/28 07:01:52;;;;;;;11.93;4.78;;;;;;;;;;7371455;19;20058;-78
2023/05/28 07:04:18;;;;;;;13.20;4.83;;;;;;;;;;7372552;19;19994;-78
2023/05/28 07:06:43;;;;;;;12.23;5.05;;;;;;;;;;7365185;19;20283;-82
2023/05/28 07:09:08;;;;;;;12.27;3.92;;;;;;;;;;7375756;19;20154;-80
2023/05/28 07:11:33;;;;;;;15.50;4.70;;;;;;;;;;7372689;19;20742;-80
2023/05/28 07:13:59;;;;;;;12.07;5.13;;;;;;;;;;7369414;19;20010;-78
2023/05/28 07:16:24;;;;;;;11.82;4.80;;;;;;;;;;7373219;19;20259;-79
2023/05/28 07:18:49;;;;;;;10.90;4.20;;;;;;;;;;7368839;19;20006;-82
2023/05/28 07:21:15;;;;;;;14.55;4.22;;;;;;;;;;7360873;19;20427;-80
2023/05/28 07:23:40;;;;;;;13.07;4.43;;;;;;;;;;7371270;19;20508;-79
2023/05/28 07:26:05;;;;;;;14.10;5.40;;;;;;;;;;7373420;19;20065;-80
2023/05/28 07:28:31;;;;;;;12.35;4.70;;;;;;;;;;7369723;19;20025;-77
2023/05/28 07:30:56;;;;;;;10.05;4.47;;;;;;;;;;7370045;19;19999;-79
2023/05/28 07:33:21;;;;;;;12.35;4.57;;;;;;;;;;7369432;19;20009;-76
2023/05/28 07:35:46;;;;;;;11.35;4.70;;;;;;;;;;7366198;19;20001;-79
2023/05/28 07:38:12;;;;;;;14.52;4.72;;;;;;;;;;7370483;19;19997;-82
2023/05/28 07:40:37;;;;;;;10.93;4.78;;;;;;;;;;7370631;19;20006;-79
2023/05/28 07:43:03;;;;;;;10.48;4.28;;;;;;;;;;7366760;19;20350;-79
2023/05/28 07:45:28;;;;;;;11.93;5.13;;;;;;;;;;7371086;19;20007;-77
2023/05/28 07:47:53;;;;;;;13.80;4.67;;;;;;;;;;7369110;19;20522;-77
2023/05/28 07:50:18;;;;;;;9.67;4.20;;;;;;;;;;7366810;19;20793;-82
2023/05/28 07:52:43;;;;;;;11.00;4.10;;;;;;;;;;7372656;19;20002;-77
2023/05/28 07:55:09;;;;;;;11.30;4.88;;;;;;;;;;7371974;19;20251;-78
2023/05/28 07:57:34;;;;;;;17.15;4.30;;;;;;;;;;7369949;19;20463;-78
2023/05/28 08:00:00;;;;;;;12.50;4.27;;;;;;;;;;7369873;19;20088;-79
2023/05/28 08:02:25;;;;;;;13.93;4.50;;;;;;;;;;7374060;19;20084;-77
2023/05/28 08:04:50;;;;;;;13.23;4.10;;;;;;;;;;7369661;19;20605;-84
2023/05/28 08:07:16;;;;;;;10.43;4.05;;;;;;;;;;7370542;19;19999;-77
2023/05/28 08:09:41;;;;;;;11.95;4.03;;;;;;;;;;7367583;19;20003;-78
2023/05/28 08:12:07;;;;;;;13.93;4.80;;;;;;;;;;7371838;19;20011;-78
2023/05/28 08:14:32;;;;;;;10.45;4.38;;;;;;;;;;7370802;19;20231;-82
2023/05/28 08:16:57;;;;;;;11.40;4.30;;;;;;;;;;7371069;19;20500;-79
2023/05/28 08:19:22;;;;;;;12.27;4.40;;;;;;;;;;7371158;19;20235;-78
2023/05/28 08:21:48;;;;;;;11.93;4.07;;;;;;;;;;7365345;19;20086;-77
2023/05/28 08:24:13;;;;;;;12.52;4.32;;;;;;;;;;7369116;19;20278;-77
2023/05/28 08:26:38;;;;;;;11.70;4.43;;;;;;;;;;7369362;19;20352;-78
2023/05/28 08:29:04;;;;;;;10.93;4.43;;;;;;;;;;7373318;19;20007;-78
2023/05/28 08:31:30;;;;;;;9.88;4.05;;;;;;;;;;7367579;19;20022;-78
2023/05/28 08:33:55;;;;;;;13.13;4.30;;;;;;;;;;7367938;19;20047;-79
2023/05/28 08:36:20;;;;;;;13.07;4.70;;;;;;;;;;7361580;19;20185;-77
2023/05/28 08:38:45;;;;;;;13.65;4.55;;;;;;;;;;7364956;19;20014;-76
2023/05/28 08:41:11;;;;;;;11.17;4.30;;;;;;;;;;7369711;19;20731;-77
2023/05/28 08:43:36;;;;;;;15.93;4.47;;;;;;;;;;7362667;19;20763;-78
2023/05/28 08:46:02;;;;;;;11.30;4.00;;;;;;;;;;7364697;19;19991;-78
2023/05/28 08:48:27;;;;;;;12.17;4.53;;;;;;;;;;7368835;19;20227;-78
2023/05/28 08:50:53;;;;;;;12.10;4.07;;;;;;;;;;7364353;19;20003;-78
2023/05/28 08:53:20;;;;;;;12.10;4.32;;;;;;;;;;7361317;19;20695;-78
2023/05/28 08:55:45;;;;;;;11.30;3.75;;;;;;;;;;7360050;19;20021;-78
2023/05/28 08:58:11;;;;;;;10.50;4.07;;;;;;;;;;7367430;19;20407;-78
2023/05/28 09:00:37;;;;;;;10.45;4.13;;;;;;;;;;7373171;19;20024;-80
2023/05/28 09:03:07;;;;;;;15.90;4.60;;;;;;;;;;7365903;19;20003;-78
2023/05/28 09:05:32;;;;;;;12.48;4.57;;;;;;;;;;7362953;19;20294;-77
2023/05/28 09:07:57;;;;;;;12.50;4.40;;;;;;;;;;7366205;19;20007;-78
2023/05/28 09:10:23;;;;;;;12.97;4.27;;;;;;;;;;7365766;19;20006;-77
2023/05/28 09:12:58;;;;;;;11.97;4.70;;;;;;;;;;7360661;19;20022;-77
2023/05/28 09:15:23;;;;;;;12.82;4.82;;;;;;;;;;7357623;19;20616;-76
2023/05/28 09:17:49;;;;;;;13.85;4.65;;;;;;;;;;7344790;19;20003;-76
2023/05/28 09:20:15;;;;;;;11.52;3.85;;;;;;;;;;7360919;19;19998;-76
2023/05/28 09:22:40;;;;;;;14.10;3.83;;;;;;;;;;7363795;19;20030;-76
2023/05/28 09:25:06;;;;;;;11.10;4.37;;;;;;;;;;7362958;19;20247;-76
2023/05/28 09:27:32;;;;;;;8.68;3.83;;;;;;;;;;7363910;19;20770;-77
2023/05/28 09:30:01;;;;;;;10.70;3.90;;;;;;;;;;7357687;19;20003;-77
2023/05/28 09:32:26;;;;;;;10.15;4.32;;;;;;;;;;7359810;19;20079;-76
2023/05/28 09:34:51;;;;;;;12.43;4.17;;;;;;;;;;7350821;19;20113;-77
2023/05/28 09:37:17;;;;;;;9.67;3.80;;;;;;;;;;7350682;19;20021;-76
2023/05/28 09:39:43;;;;;;;12.18;4.10;;;;;;;;;;7359926;19;20699;-75
2023/05/28 09:42:11;;;;;;;11.43;4.65;;;;;;;;;;7358713;19;20384;-76
2023/05/28 09:44:38;;;;;;;9.43;3.88;;;;;;;;;;7360763;19;20009;-77
2023/05/28 09:47:16;;;;;;;12.88;4.38;;;;;;;;;;7353349;19;20013;-76
2023/05/28 09:49:45;;;;;;;13.40;4.13;;;;;;;;;;7356593;19;20062;-76
2023/05/28 09:52:16;;;;;;;10.90;4.03;;;;;;;;;;7364142;19;20006;-75
2023/05/28 09:54:45;;;;;;;11.45;3.88;;;;;;;;;;7363929;19;20118;-75
2023/05/28 09:57:11;;;;;;;9.23;3.97;;;;;;;;;;7353373;19;19999;-76
2023/05/28 09:59:38;;;;;;;11.70;4.28;;;;;;;;;;7365678;19;20018;-76
2023/05/28 10:02:19;;;;;;;12.05;4.43;;;;;;;;;;7360497;19;20077;-76
2023/05/28 10:04:45;;;;;;;10.75;3.83;;;;;;;;;;7354501;19;20120;-77
2023/05/28 10:07:10;;;;;;;10.98;3.95;;;;;;;;;;7352052;19;19995;-76
2023/05/28 10:09:37;;;;;;;13.13;4.25;;;;;;;;;;7361276;19;20747;-76
2023/05/28 10:12:08;;;;;;;9.20;3.72;;;;;;;;;;7344130;19;20010;-76
2023/05/28 10:14:34;;;;;;;10.20;4.13;;;;;;;;;;7349540;19;20058;-76
2023/05/28 10:16:59;;;;;;;10.48;4.10;;;;;;;;;;7357748;19;20068;-77
2023/05/28 10:19:25;;;;;;;9.80;4.00;;;;;;;;;;7351266;19;20002;-76
2023/05/28 10:21:51;;;;;;;10.48;3.88;;;;;;;;;;7353504;19;20009;-76
2023/05/28 10:24:16;;;;;;;13.02;4.18;;;;;;;;;;7357004;19;20359;-76
2023/05/28 10:26:41;;;;;;;10.60;4.28;;;;;;;;;;7362055;19;20002;-76
2023/05/28 10:29:09;;;;;;;12.20;4.22;;;;;;;;;;7362998;19;20006;-77
2023/05/28 10:31:34;;;;;;;9.88;3.47;;;;;;;;;;7361944;19;20138;-77
2023/05/28 10:34:00;;;;;;;11.53;3.87;;;;;;;;;;7343378;19;20492;-77
2023/05/28 10:36:25;;;;;;;10.10;4.07;;;;;;;;;;7360997;19;20114;-77
2023/05/28 10:38:53;;;;;;;9.90;3.60;;;;;;;;;;7363094;19;20304;-77
2023/05/28 10:41:21;;;;;;;9.73;3.67;;;;;;;;;;7367924;19;20675;-76
2023/05/28 10:43:48;;;;;;;9.75;4.20;;;;;;;;;;7359841;19;19998;-83
2023/05/28 10:46:20;;;;;;;10.00;3.88;;;;;;;;;;7354510;19;20122;-77
2023/05/28 10:49:03;;;;;;;10.23;4.05;;;;;;;;;;7368030;19;20458;-78
2023/05/28 10:51:28;;;;;;;;;;;;;;;;;;7367487;19;20029;-81
2023/05/28 10:53:54;;;;;;;10.48;4.13;;;;;;;;;;7361586;19;20019;-77
2023/05/28 10:56:19;;;;;;;9.80;3.70;;;;;;;;;;7338552;19;20021;-76
2023/05/28 10:58:44;;;;;;;10.30;3.80;;;;;;;;;;7367019;19;19999;-76
2023/05/28 11:01:09;;;;;;;10.13;3.90;;;;;;;;;;7367330;19;20002;-76
2023/05/28 11:03:39;;;;;;;9.00;3.45;;;;;;;;;;7377335;19;20047;-76
2023/05/28 11:06:05;;;;;;;13.43;4.47;;;;;;;;;;7368868;19;20049;-77
2023/05/28 11:08:31;;;;;;;11.82;4.10;;;;;;;;;;7376087;19;20031;-77
2023/05/28 11:10:57;;;;;;;11.30;3.90;;;;;;;;;;7370213;19;20444;-77
2023/05/28 11:13:25;;;;;;;8.23;3.60;;;;;;;;;;7366810;19;19995;-76
2023/05/28 11:15:50;;;;;;;11.82;3.75;;;;;;;;;;7375321;19;20110;-76
2023/05/28 11:18:15;;;;;;;12.83;4.13;;;;;;;;;;7365792;19;20309;-77
2023/05/28 11:20:40;;;;;;;11.47;3.80;;;;;;;;;;7372576;19;20001;-80
2023/05/28 11:23:13;;;;;;;9.02;3.67;;;;;;;;;;7372253;19;20043;-78
2023/05/28 11:25:41;;;;;;;12.77;4.60;;;;;;;;;;7370551;19;20419;-77
2023/05/28 11:28:06;;;;;;;11.23;4.25;;;;;;;;;;7365562;19;20017;-78
2023/05/28 11:30:32;;;;;;;8.27;4.33;;;;;;;;;;7359381;19;20070;-76
2023/05/28 11:33:01;;;;;;;10.90;4.25;;;;;;;;;;7355420;19;20005;-79
2023/05/28 11:35:26;;;;;;;14.05;4.30;;;;;;;;;;7357114;19;20014;-77
2023/05/28 11:37:52;;;;;;;10.63;4.32;;;;;;;;;;7362026;19;20033;-77
2023/05/28 11:40:18;;;;;;;9.30;3.53;;;;;;;;;;7372225;19;20527;-77
2023/05/28 11:42:44;;;;;;;11.57;4.25;;;;;;;;;;7368744;19;20141;-77
2023/05/28 11:45:11;;;;;;;12.40;3.95;;;;;;;;;;7368618;19;20007;-77
2023/05/28 11:47:36;;;;;;;13.90;5.03;;;;;;;;;;7367118;19;20340;-78
2023/05/28 11:50:05;;;;;;;11.93;4.60;;;;;;;;;;7359641;19;20014;-77
2023/05/28 11:52:30;;;;;;;11.48;3.88;;;;;;;;;;7371160;19;20026;-79
2023/05/28 11:54:56;;;;;;;10.33;3.83;;;;;;;;;;7367315;19;20003;-77
2023/05/28 11:57:26;;;;;;;9.25;4.13;;;;;;;;;;7365862;19;20003;-77
2023/05/28 11:59:55;;;;;;;10.45;4.97;;;;;;;;;;7354579;19;20010;-78
2023/05/28 12:02:21;;;;;;;10.93;4.80;;;;;;;;;;7370842;19;20045;-76
2023/05/28 12:04:53;;;;;;;11.30;4.93;;;;;;;;;;7368383;19;20046;-78
2023/05/28 12:07:18;;;;;;;10.68;5.25;;;;;;;;;;7365713;19;20031;-81
2023/05/28 12:09:44;;;;;;;10.83;5.17;;;;;;;;;;7370073;19;20295;-78
2023/05/28 12:12:10;;;;;;;10.30;5.97;;;;;;;;;;7367692;19;20690;-76
2023/05/28 12:14:35;;;;;;;10.98;5.10;;;;;;;;;;7361834;19;20002;-78
2023/05/28 12:17:04;;;;;;;12.30;5.30;;;;;;;;;;7363262;19;20688;-78
2023/05/28 12:19:31;;;;;;;12.95;5.55;;;;;;;;;;7359713;19;20009;-75
2023/05/28 12:21:56;;;;;;;12.55;5.28;;;;;;;;;;7348747;19;20026;-78
2023/05/28 12:24:25;;;;;;;16.23;5.60;;;;;;;;;;7347447;19;20011;-79
2023/05/28 12:26:50;;;;;;;11.75;5.50;;;;;;;;;;7358632;19;20010;-79
2023/05/28 12:29:15;;;;;;;13.43;5.73;;;;;;;;;;7358551;19;19999;-77
2023/05/28 12:31:41;;;;;;;11.55;5.82;;;;;;;;;;7363654;19;20473;-76
2023/05/28 12:34:06;;;;;;;11.68;5.78;;;;;;;;;;7360974;19;20015;-77
2023/05/28 12:36:32;;;;;;;12.47;6.60;;;;;;;;;;7359417;19;20138;-76
2023/05/28 12:38:58;;;;;;;13.30;6.95;;;;;;;;;;7357749;19;20496;-77
2023/05/28 12:41:23;;;;;;;12.57;6.20;;;;;;;;;;7367482;19;20003;-77
2023/05/28 12:43:48;;;;;;;11.77;5.70;;;;;;;;;;7367274;19;20786;-77
2023/05/28 12:46:13;;;;;;;13.93;5.50;;;;;;;;;;7366528;19;19998;-76
2023/05/28 12:48:38;;;;;;;13.40;5.30;;;;;;;;;;7362410;19;20054;-77
2023/05/28 12:51:03;;;;;;;11.27;5.73;;;;;;;;;;7355478;19;20007;-78
2023/05/28 12:53:29;;;;;;;11.13;5.43;;;;;;;;;;7369679;19;20286;-76
2023/05/28 12:55:54;;;;;;;12.48;6.25;;;;;;;;;;7357054;19;20255;-78
2023/05/28 12:58:19;;;;;;;15.37;6.23;;;;;;;;;;7369814;19;20478;-76
2023/05/28 13:00:44;;;;;;;11.32;6.15;;;;;;;;;;7366505;19;20231;-76
2023/05/28 13:03:10;;;;;;;11.20;6.22;;;;;;;;;;7372965;19;20021;-76
2023/05/28 13:05:35;;;;;;;11.73;6.10;;;;;;;;;;7364849;19;20520;-76
2023/05/28 13:08:03;;;;;;;13.25;6.63;;;;;;;;;;7368801;19;20444;-77
2023/05/28 13:10:29;;;;;;;11.80;5.40;;;;;;;;;;7362699;19;20015;-76
2023/05/28 13:12:54;;;;;;;17.52;7.40;;;;;;;;;;7364366;19;20002;-76
2023/05/28 13:15:21;;;;;;;15.13;7.10;;;;;;;;;;7370861;19;20014;-76
2023/05/28 13:17:46;;;;;;;13.38;7.47;;;;;;;;;;7366166;19;20235;-76
2023/05/28 13:20:11;;;;;;;11.83;6.30;;;;;;;;;;7360085;19;20632;-77
2023/05/28 13:22:36;;;;;;;15.32;7.22;;;;;;;;;;7369248;19;20010;-77
2023/05/28 13:25:05;;;;;;;15.15;6.30;;;;;;;;;;7354928;19;20082;-77
2023/05/28 13:27:30;;;;;;;12.82;5.65;;;;;;;;;;7365707;19;20003;-75
2023/05/28 13:29:55;;;;;;;11.40;5.90;;;;;;;;;;7364218;19;20009;-77
2023/05/28 13:32:21;;;;;;;13.80;6.90;;;;;;;;;;7369855;19;19994;-77
2023/05/28 13:34:46;;;;;;;16.60;6.75;;;;;;;;;;7360948;19;20108;-77
2023/05/28 13:37:11;;;;;;;15.30;6.63;;;;;;;;;;7351633;19;20050;-75
2023/05/28 13:39:36;;;;;;;12.60;6.03;;;;;;;;;;7364344;19;19998;-77
2023/05/28 13:42:03;;;;;;;14.32;7.20;;;;;;;;;;7363038;19;20250;-77
2023/05/28 13:44:28;;;;;;;13.30;6.57;;;;;;;;;;7361358;19;20006;-78
2023/05/28 13:46:54;;;;;;;11.68;6.60;;;;;;;;;;7342406;19;20031;-76
2023/05/28 13:49:19;;;;;;;11.23;6.77;;;;;;;;;;7364827;19;20003;-76
2023/05/28 13:51:44;;;;;;;15.38;8.23;;;;;;;;;;7360830;19;20025;-76
2023/05/28 13:54:10;;;;;;;15.25;7.97;;;;;;;;;;7360403;19;20422;-75
2023/05/28 13:56:35;;;;;;;15.23;7.35;;;;;;;;;;7360236;19;19998;-75
2023/05/28 13:59:00;;;;;;;14.30;7.07;;;;;;;;;;7358873;19;20018;-77
2023/05/28 14:01:25;;;;;;;15.43;7.50;;;;;;;;;;7378011;19;20018;-76
2023/05/28 14:03:50;;;;;;;14.27;7.47;;;;;;;;;;7367587;19;20460;-75
2023/05/28 14:06:16;;;;;;;11.73;6.57;;;;;;;;;;7366849;19;20009;-77
2023/05/28 14:08:41;;;;;;;12.37;6.30;;;;;;;;;;7373126;19;20074;-76
2023/05/28 14:11:06;;;;;;;12.70;6.97;;;;;;;;;;7358087;19;20006;-76
2023/05/28 14:13:31;;;;;;;13.23;7.27;;;;;;;;;;7363260;19;20297;-77
2023/05/28 14:15:57;;;;;;;13.60;7.50;;;;;;;;;;7364727;19;20003;-76
2023/05/28 14:18:22;;;;;;;12.60;6.97;;;;;;;;;;7372855;19;20235;-78
2023/05/28 14:20:48;;;;;;;13.53;7.10;;;;;;;;;;7356874;19;19999;-76
2023/05/28 17:31:53;;;;;;;11.23;5.28;;;;;;;;;;7330182;19;20050;-77